createdAt,value
2023-03-29T00:00:48.335Z,101179.00
2023-03-29T00:03:23.211Z,101177.13
2023-03-29T00:06:05.069Z,101175.23
2023-03-29T00:08:41.974Z,101171.70
2023-03-29T00:11:15.522Z,101164.89
2023-03-29T00:13:49.968Z,101166.72
2023-03-29T00:16:23.718Z,101169.35
2023-03-29T00:18:57.874Z,101167.89
2023-03-29T00:21:31.662Z,101168.96
2023-03-29T00:24:03.156Z,101168.16
2023-03-29T00:26:34.565Z,101164.91
2023-03-29T00:29:04.024Z,101168.38
2023-03-29T00:31:36.674Z,101170.39
2023-03-29T00:34:12.672Z,101167.70
2023-03-29T00:36:46.971Z,101171.11
2023-03-29T00:39:26.346Z,101171.36
2023-03-29T00:42:04.813Z,101169.30
2023-03-29T00:45:04.134Z,101166.70
2023-03-29T00:47:49.280Z,101166.55
2023-03-29T00:50:34.134Z,101160.52
2023-03-29T00:53:13.667Z,101156.16
2023-03-29T00:56:04.193Z,101153.69
2023-03-29T00:59:03.691Z,101156.14
2023-03-29T01:01:45.736Z,101159.66
2023-03-29T01:04:30.375Z,101156.18
2023-03-29T01:07:11.985Z,101154.27
2023-03-29T01:09:49.694Z,101143.47
2023-03-29T01:12:32.621Z,101144.15
2023-03-29T01:15:16.676Z,101139.10
2023-03-29T01:17:53.215Z,101136.00
2023-03-29T01:20:38.676Z,101131.92
2023-03-29T01:23:20.978Z,101131.75
2023-03-29T01:26:11.195Z,101133.10
2023-03-29T01:28:51.834Z,101130.38
2023-03-29T01:31:31.539Z,101127.30
2023-03-29T01:34:19.147Z,101124.58
2023-03-29T01:36:56.237Z,101122.84
2023-03-29T01:39:28.751Z,101120.77
2023-03-29T01:42:01.344Z,101122.20
2023-03-29T01:44:48.884Z,101117.19
2023-03-29T01:47:34.382Z,101116.34
2023-03-29T01:50:37.173Z,101116.27
2023-03-29T01:53:21.925Z,101119.13
2023-03-29T01:55:59.124Z,101111.91
2023-03-29T01:58:35.687Z,101112.95
2023-03-29T02:01:11.425Z,101112.85
2023-03-29T02:03:51.534Z,101111.46
2023-03-29T02:06:28.026Z,101111.95
2023-03-29T02:09:05.017Z,101112.88
2023-03-29T02:11:41.110Z,101116.11
2023-03-29T02:14:15.883Z,101117.63
2023-03-29T02:16:52.134Z,101113.14
2023-03-29T02:19:26.982Z,101109.45
2023-03-29T02:22:11.991Z,101109.14
2023-03-29T02:24:45.703Z,101112.64
2023-03-29T02:27:23.978Z,101109.27
2023-03-29T02:30:01.732Z,101111.27
2023-03-29T02:33:03.042Z,101105.68
2023-03-29T02:35:44.368Z,101106.41
2023-03-29T02:38:17.804Z,101099.25
2023-03-29T02:40:54.581Z,101099.46
2023-03-29T02:43:29.128Z,101094.09
2023-03-29T02:46:05.730Z,101093.50
2023-03-29T02:48:41.685Z,101091.23
2023-03-29T02:51:22.762Z,101087.16
2023-03-29T02:54:05.468Z,101079.52
2023-03-29T02:56:51.730Z,101079.14
2023-03-29T02:59:26.985Z,101076.88
2023-03-29T03:02:03.692Z,101076.92
2023-03-29T03:04:36.985Z,101079.20
2023-03-29T03:07:12.017Z,101080.13
2023-03-29T03:09:47.717Z,101077.44
2023-03-29T03:12:27.681Z,101071.50
2023-03-29T03:15:02.976Z,101069.09
2023-03-29T03:17:36.335Z,101066.44
2023-03-29T03:20:14.707Z,101066.14
2023-03-29T03:22:50.276Z,101060.03
2023-03-29T03:25:24.324Z,101063.11
2023-03-29T03:27:59.557Z,101063.42
2023-03-29T03:30:36.653Z,101058.55
2023-03-29T03:33:13.250Z,101060.34
2023-03-29T03:35:54.002Z,101054.38
2023-03-29T03:38:27.636Z,101053.77
2023-03-29T03:41:05.309Z,101046.52
2023-03-29T03:43:36.583Z,101042.45
2023-03-29T03:46:11.718Z,101036.73
2023-03-29T03:48:50.702Z,101033.44
2023-03-29T03:51:26.989Z,101032.52
2023-03-29T03:53:58.279Z,101027.16
2023-03-29T03:56:30.578Z,101025.40
2023-03-29T03:59:04.220Z,101029.45
2023-03-29T04:01:35.223Z,101028.73
2023-03-29T04:04:06.723Z,101026.58
2023-03-29T04:06:43.767Z,101030.89
2023-03-29T04:09:15.090Z,101026.40
2023-03-29T04:11:49.709Z,101024.87
2023-03-29T04:14:26.000Z,101026.17
2023-03-29T04:16:56.705Z,101027.50
2023-03-29T04:19:28.104Z,101023.86
2023-03-29T04:21:58.261Z,101019.26
2023-03-29T04:24:28.444Z,101019.85
2023-03-29T04:27:02.289Z,101016.65
2023-03-29T04:29:35.057Z,101017.92
2023-03-29T04:32:04.857Z,101018.23
2023-03-29T04:34:38.198Z,101017.46
2023-03-29T04:37:11.344Z,101017.94
2023-03-29T04:39:41.992Z,101016.63
2023-03-29T04:42:14.715Z,101016.67
2023-03-29T04:44:47.350Z,101017.63
2023-03-29T04:47:22.944Z,101018.14
2023-03-29T04:49:54.536Z,101020.55
2023-03-29T04:52:30.225Z,101016.98
2023-03-29T04:55:03.358Z,101019.58
2023-03-29T04:57:38.171Z,101022.85
2023-03-29T05:00:16.433Z,101026.48
2023-03-29T05:02:50.776Z,101028.83
2023-03-29T05:05:22.989Z,101024.91
2023-03-29T05:07:55.309Z,101029.66
2023-03-29T05:10:28.000Z,101029.92
2023-03-29T05:13:03.474Z,101026.86
2023-03-29T05:15:35.524Z,101021.61
2023-03-29T05:18:05.056Z,101022.34
2023-03-29T05:20:35.624Z,101024.95
2023-03-29T05:23:06.726Z,101023.30
2023-03-29T05:25:37.082Z,101011.48
2023-03-29T05:28:07.652Z,101018.35
2023-03-29T05:30:38.775Z,101016.28
2023-03-29T05:33:07.365Z,101011.08
2023-03-29T05:35:37.047Z,101005.58
2023-03-29T05:38:10.523Z,101001.22
2023-03-29T05:40:43.324Z,101007.16
2023-03-29T05:43:14.342Z,101004.23
2023-03-29T05:45:46.728Z,101004.94
2023-03-29T05:48:18.229Z,101007.64
2023-03-29T05:50:55.992Z,101004.81
2023-03-29T05:53:30.530Z,101003.05
2023-03-29T05:56:04.673Z,101008.02
2023-03-29T05:58:41.503Z,100993.45
2023-03-29T06:01:18.914Z,100999.87
2023-03-29T06:04:00.076Z,100998.48
2023-03-29T06:06:34.172Z,100994.96
2023-03-29T06:09:07.289Z,100991.41
2023-03-29T06:11:39.253Z,100992.83
2023-03-29T06:14:18.693Z,100990.02
2023-03-29T06:16:52.073Z,100985.10
2023-03-29T06:19:24.736Z,100986.22
2023-03-29T06:22:01.309Z,100989.89
2023-03-29T06:24:33.978Z,100995.90
2023-03-29T06:27:06.289Z,100993.67
2023-03-29T06:29:39.322Z,100993.61
2023-03-29T06:32:10.313Z,100991.61
2023-03-29T06:34:42.133Z,100990.58
2023-03-29T06:37:18.176Z,100992.30
2023-03-29T06:39:54.154Z,100989.90
2023-03-29T06:42:34.005Z,100982.48
2023-03-29T06:45:06.857Z,100977.94
2023-03-29T06:47:39.879Z,100976.36
2023-03-29T06:50:14.346Z,100973.27
2023-03-29T06:52:50.640Z,100971.77
2023-03-29T06:55:24.746Z,100965.00
2023-03-29T06:58:02.305Z,100961.52
2023-03-29T07:00:39.121Z,100959.14
2023-03-29T07:03:23.855Z,100962.02
2023-03-29T07:06:04.492Z,100964.48
2023-03-29T07:08:46.902Z,100963.88
2023-03-29T07:11:22.394Z,100964.92
2023-03-29T07:13:59.605Z,100960.64
2023-03-29T07:16:35.046Z,100967.05
2023-03-29T07:19:07.911Z,100970.52
2023-03-29T07:21:46.171Z,100967.16
2023-03-29T07:24:23.875Z,100968.25
2023-03-29T07:27:04.142Z,100967.59
2023-03-29T07:29:36.292Z,100964.24
2023-03-29T07:32:08.632Z,100965.81
2023-03-29T07:34:43.337Z,100967.48
2023-03-29T07:37:21.009Z,100964.59
2023-03-29T07:39:56.085Z,100965.79
2023-03-29T07:42:30.756Z,100961.77
2023-03-29T07:45:06.157Z,100960.25
2023-03-29T07:47:38.548Z,100956.16
2023-03-29T07:50:15.009Z,100953.08
2023-03-29T07:52:51.005Z,100954.33
2023-03-29T07:55:24.137Z,100954.67
2023-03-29T07:57:58.003Z,100950.65
2023-03-29T08:00:38.060Z,100953.09
2023-03-29T08:03:17.213Z,100950.73
2023-03-29T08:05:55.134Z,100950.14
2023-03-29T08:08:31.755Z,100940.90
2023-03-29T08:11:12.882Z,100938.84
2023-03-29T08:13:49.762Z,100941.38
2023-03-29T08:16:24.763Z,100944.83
2023-03-29T08:18:57.209Z,100934.00
2023-03-29T08:21:32.060Z,100933.59
2023-03-29T08:24:07.022Z,100926.63
2023-03-29T08:26:41.018Z,100926.59
2023-03-29T08:29:18.023Z,100926.38
2023-03-29T08:31:52.815Z,100924.95
2023-03-29T08:34:25.768Z,100920.98
2023-03-29T08:36:59.189Z,100921.52
2023-03-29T08:39:37.363Z,100918.21
2023-03-29T08:42:33.593Z,100914.19
2023-03-29T08:45:18.743Z,100910.50
2023-03-29T08:48:12.207Z,100908.13
2023-03-29T08:50:55.771Z,100901.52
2023-03-29T08:53:31.820Z,100900.89
2023-03-29T08:56:18.212Z,100897.70
2023-03-29T08:58:50.977Z,100897.63
2023-03-29T09:01:24.269Z,100897.59
2023-03-29T09:04:08.114Z,100903.14
2023-03-29T09:06:42.791Z,100900.90
2023-03-29T09:09:20.639Z,100895.02
2023-03-29T09:12:16.782Z,100899.02
2023-03-29T09:15:06.314Z,100899.19
2023-03-29T09:17:52.928Z,100890.03
2023-03-29T09:20:30.032Z,100891.16
2023-03-29T09:23:15.779Z,100894.07
2023-03-29T09:26:06.422Z,100890.61
2023-03-29T09:28:41.650Z,100885.95
2023-03-29T09:31:27.792Z,100884.41
2023-03-29T09:34:24.180Z,100877.59
2023-03-29T09:36:57.507Z,100874.96
2023-03-29T09:39:34.499Z,100872.64
2023-03-29T09:42:08.434Z,100875.52
2023-03-29T09:44:52.343Z,100867.48
2023-03-29T09:47:42.163Z,100871.11
2023-03-29T09:50:31.009Z,100866.42
2023-03-29T09:53:07.807Z,100865.33
2023-03-29T09:55:42.429Z,100862.30
2023-03-29T09:58:20.055Z,100856.70
2023-03-29T10:00:58.797Z,100855.59
2023-03-29T10:03:35.177Z,100847.64
2023-03-29T10:06:11.864Z,100844.84
2023-03-29T10:09:00.258Z,100844.15
2023-03-29T10:11:38.258Z,100840.35
2023-03-29T10:14:25.791Z,100835.08
2023-03-29T10:17:02.853Z,100827.46
2023-03-29T10:19:39.027Z,100825.09
2023-03-29T10:22:22.659Z,100822.45
2023-03-29T10:24:57.408Z,100822.94
2023-03-29T10:27:39.241Z,100819.14
2023-03-29T10:30:28.796Z,100818.21
2023-03-29T10:33:05.123Z,100819.10
2023-03-29T10:35:43.696Z,100812.19
2023-03-29T10:38:22.928Z,100813.02
2023-03-29T10:40:59.895Z,100811.06
2023-03-29T10:44:04.898Z,100805.27
2023-03-29T10:46:47.017Z,100799.98
2023-03-29T10:49:30.399Z,100797.55
2023-03-29T10:52:03.890Z,100793.48
2023-03-29T10:54:39.064Z,100790.91
2023-03-29T10:57:20.967Z,100786.52
2023-03-29T11:00:05.743Z,100781.36
2023-03-29T11:03:08.795Z,100782.77
2023-03-29T11:05:52.803Z,100777.91
2023-03-29T11:08:35.537Z,100778.67
2023-03-29T11:11:17.329Z,100777.08
2023-03-29T11:14:32.197Z,100774.59
2023-03-29T11:17:04.171Z,100771.30
2023-03-29T11:20:06.364Z,100770.50
2023-03-29T11:23:30.586Z,100768.06
2023-03-29T11:26:23.061Z,100755.13
2023-03-29T11:29:37.047Z,100749.33
2023-03-29T11:32:34.626Z,100743.95
2023-03-29T11:35:12.092Z,100737.63
2023-03-29T11:38:16.825Z,100735.79
2023-03-29T11:40:54.911Z,100728.19
2023-03-29T11:43:30.066Z,100722.60
2023-03-29T11:46:14.798Z,100717.64
2023-03-29T11:48:59.818Z,100711.99
2023-03-29T11:51:42.254Z,100706.17
2023-03-29T11:54:30.218Z,100703.19
2023-03-29T11:57:21.609Z,100697.70
2023-03-29T12:00:06.876Z,100689.75
2023-03-29T12:03:07.365Z,100688.81
2023-03-29T12:05:47.076Z,100681.05
2023-03-29T12:08:46.080Z,100683.21
2023-03-29T12:11:25.074Z,100679.55
2023-03-29T12:14:06.075Z,100677.85
2023-03-29T12:16:46.610Z,100670.63
2023-03-29T12:19:43.692Z,100667.58
2023-03-29T12:22:14.971Z,100669.25
2023-03-29T12:24:50.218Z,100665.73
2023-03-29T12:27:34.426Z,100670.66
2023-03-29T12:30:21.428Z,100662.09
2023-03-29T12:32:55.699Z,100658.13
2023-03-29T12:35:42.842Z,100657.71
2023-03-29T12:38:23.117Z,100650.93
2023-03-29T12:41:05.828Z,100649.95
2023-03-29T12:43:44.094Z,100646.96
2023-03-29T12:46:29.977Z,100640.20
2023-03-29T12:49:21.076Z,100636.40
2023-03-29T12:51:54.845Z,100636.91
2023-03-29T12:54:34.146Z,100633.05
2023-03-29T12:57:44.324Z,100625.88
2023-03-29T13:00:46.083Z,100623.88
2023-03-29T13:03:26.376Z,100620.72
2023-03-29T13:06:03.593Z,100616.45
2023-03-29T13:08:41.509Z,100617.80
2023-03-29T13:11:33.358Z,100616.31
2023-03-29T13:14:19.458Z,100614.88
2023-03-29T13:16:51.686Z,100612.09
2023-03-29T13:19:35.698Z,100610.72
2023-03-29T13:22:15.776Z,100609.84
2023-03-29T13:25:09.113Z,100608.83
2023-03-29T13:27:53.837Z,100601.86
2023-03-29T13:30:47.032Z,100602.15
2023-03-29T13:33:45.161Z,100602.09
2023-03-29T13:36:53.674Z,100600.91
2023-03-29T13:39:35.727Z,100605.25
2023-03-29T13:42:39.862Z,100601.80
2023-03-29T13:45:21.124Z,100600.05
2023-03-29T13:48:31.184Z,100605.55
2023-03-29T13:51:21.724Z,100599.98
2023-03-29T13:54:06.279Z,100593.45
2023-03-29T13:57:01.887Z,100595.23
2023-03-29T13:59:51.802Z,100590.98
2023-03-29T14:02:34.599Z,100583.84
2023-03-29T14:05:13.857Z,100588.39
2023-03-29T14:07:57.949Z,100583.93
2023-03-29T14:10:39.128Z,100578.58
2023-03-29T14:13:17.518Z,100579.61
2023-03-29T14:15:59.311Z,100578.70
2023-03-29T14:18:43.531Z,100580.68
2023-03-29T14:21:17.932Z,100580.70
2023-03-29T14:24:01.745Z,100580.41
2023-03-29T14:26:36.625Z,100590.36
2023-03-29T14:29:09.846Z,100595.95
2023-03-29T14:31:48.437Z,100593.40
2023-03-29T14:34:20.508Z,100583.76
2023-03-29T14:36:51.474Z,100578.14
2023-03-29T14:39:25.547Z,100576.31
2023-03-29T14:42:01.888Z,100573.21
2023-03-29T14:44:38.806Z,100568.64
2023-03-29T14:47:18.763Z,100562.90
2023-03-29T14:49:54.740Z,100561.39
2023-03-29T14:52:32.996Z,100556.60
2023-03-29T14:55:08.855Z,100550.85
2023-03-29T14:57:48.864Z,100550.57
2023-03-29T15:00:33.689Z,100548.59
2023-03-29T15:03:15.289Z,100553.24
2023-03-29T15:05:58.722Z,100548.42
2023-03-29T15:08:54.118Z,100541.96
2023-03-29T15:11:35.378Z,100541.39
2023-03-29T15:14:17.857Z,100537.76
2023-03-29T15:16:53.206Z,100539.56
2023-03-29T15:19:30.622Z,100533.45
2023-03-29T15:22:12.870Z,100527.64
2023-03-29T15:24:52.739Z,100524.72
2023-03-29T15:27:26.297Z,100526.17
2023-03-29T15:30:09.323Z,100518.06
2023-03-29T15:32:46.551Z,100527.84
2023-03-29T15:35:28.575Z,100534.13
2023-03-29T15:38:01.087Z,100530.12
2023-03-29T15:40:39.786Z,100529.02
2023-03-29T15:43:19.161Z,100533.90
2023-03-29T15:45:55.582Z,100543.48
2023-03-29T15:48:32.179Z,100545.84
2023-03-29T15:51:08.178Z,100547.44
2023-03-29T15:53:48.288Z,100547.09
2023-03-29T15:56:24.582Z,100545.59
2023-03-29T15:58:59.546Z,100537.38
2023-03-29T16:01:40.622Z,100540.30
2023-03-29T16:04:19.421Z,100547.46
2023-03-29T16:06:54.741Z,100552.23
2023-03-29T16:09:27.622Z,100557.95
2023-03-29T16:12:03.597Z,100563.29
2023-03-29T16:14:41.851Z,100561.73
2023-03-29T16:17:19.371Z,100556.98
2023-03-29T16:19:54.073Z,100550.81
2023-03-29T16:22:32.023Z,100543.33
2023-03-29T16:25:06.904Z,100545.77
2023-03-29T16:27:44.844Z,100548.52
2023-03-29T16:30:20.441Z,100551.44
2023-03-29T16:32:58.665Z,100548.54
2023-03-29T16:35:35.437Z,100546.77
2023-03-29T16:38:15.071Z,100550.88
2023-03-29T16:40:49.797Z,100548.45
2023-03-29T16:43:24.413Z,100544.85
2023-03-29T16:45:59.274Z,100540.90
2023-03-29T16:48:36.596Z,100539.67
2023-03-29T16:51:09.886Z,100539.64
2023-03-29T16:53:46.595Z,100537.83
2023-03-29T16:56:17.637Z,100537.17
2023-03-29T16:58:52.281Z,100536.45
2023-03-29T17:01:28.224Z,100535.59
2023-03-29T17:04:03.249Z,100539.33
2023-03-29T17:06:34.045Z,100541.11
2023-03-29T17:09:07.377Z,100540.80
2023-03-29T17:11:38.642Z,100536.33
2023-03-29T17:14:14.834Z,100533.28
2023-03-29T17:16:47.435Z,100534.45
2023-03-29T17:19:23.660Z,100531.90
2023-03-29T17:22:04.079Z,100526.13
2023-03-29T17:24:39.169Z,100525.40
2023-03-29T17:27:09.115Z,100529.17
2023-03-29T17:29:38.401Z,100521.16
2023-03-29T17:32:08.712Z,100521.81
2023-03-29T17:34:43.479Z,100525.08
2023-03-29T17:37:14.004Z,100520.39
2023-03-29T17:39:46.959Z,100520.73
2023-03-29T17:42:23.055Z,100522.55
2023-03-29T17:44:59.352Z,100525.74
2023-03-29T17:47:34.616Z,100521.24
2023-03-29T17:50:11.360Z,100518.99
2023-03-29T17:52:46.618Z,100524.52
2023-03-29T17:55:24.432Z,100521.58
2023-03-29T17:58:02.389Z,100520.05
2023-03-29T18:00:35.149Z,100526.38
2023-03-29T18:03:07.758Z,100530.45
2023-03-29T18:05:42.568Z,100537.96
2023-03-29T18:08:17.615Z,100528.16
2023-03-29T18:10:56.983Z,100533.75
2023-03-29T18:13:30.008Z,100532.41
2023-03-29T18:16:02.401Z,100532.27
2023-03-29T18:18:38.594Z,100532.96
2023-03-29T18:21:14.708Z,100534.52
2023-03-29T18:23:52.848Z,100535.83
2023-03-29T18:26:31.021Z,100541.50
2023-03-29T18:29:07.911Z,100542.69
2023-03-29T18:31:45.470Z,100544.47
2023-03-29T18:34:21.343Z,100546.62
2023-03-29T18:36:55.300Z,100539.86
2023-03-29T18:39:30.208Z,100540.45
2023-03-29T18:42:04.622Z,100535.89
2023-03-29T18:44:37.516Z,100538.15
2023-03-29T18:47:09.921Z,100539.64
2023-03-29T18:49:44.647Z,100539.83
2023-03-29T18:52:26.627Z,100528.13
2023-03-29T18:54:59.769Z,100539.49
2023-03-29T18:57:33.745Z,100538.15
2023-03-29T19:00:14.634Z,100537.54
2023-03-29T19:02:48.878Z,100530.05
2023-03-29T19:05:23.840Z,100529.88
2023-03-29T19:07:58.150Z,100526.05
2023-03-29T19:10:29.777Z,100528.70
2023-03-29T19:13:02.638Z,100523.11
2023-03-29T19:15:38.243Z,100523.27
2023-03-29T19:18:16.636Z,100521.48
2023-03-29T19:20:50.224Z,100527.73
2023-03-29T19:23:20.898Z,100525.84
2023-03-29T19:25:54.591Z,100521.19
2023-03-29T19:28:29.157Z,100521.33
2023-03-29T19:31:05.405Z,100518.25
2023-03-29T19:33:40.342Z,100516.83
2023-03-29T19:36:18.640Z,100517.86
2023-03-29T19:38:51.738Z,100517.10
2023-03-29T19:41:27.597Z,100519.17
2023-03-29T19:44:01.217Z,100514.20
2023-03-29T19:46:36.010Z,100509.09
2023-03-29T19:49:14.251Z,100509.23
2023-03-29T19:51:49.440Z,100505.17
2023-03-29T19:54:20.428Z,100503.65
2023-03-29T19:56:51.957Z,100506.80
2023-03-29T19:59:21.983Z,100502.30
2023-03-29T20:01:58.084Z,100499.65
2023-03-29T20:04:35.365Z,100494.85
2023-03-29T20:07:05.850Z,100492.27
2023-03-29T20:09:37.833Z,100486.14
2023-03-29T20:12:10.880Z,100489.59
2023-03-29T20:14:44.003Z,100482.37
2023-03-29T20:17:18.554Z,100487.56
2023-03-29T20:19:51.644Z,100485.74
2023-03-29T20:22:27.646Z,100481.96
2023-03-29T20:25:03.227Z,100481.35
2023-03-29T20:27:35.479Z,100484.19
2023-03-29T20:30:14.958Z,100482.44
2023-03-29T20:32:50.254Z,100486.80
2023-03-29T20:35:26.647Z,100485.06
2023-03-29T20:37:59.664Z,100482.19
2023-03-29T20:40:35.227Z,100482.95
2023-03-29T20:43:13.948Z,100479.09
2023-03-29T20:45:54.475Z,100474.59
2023-03-29T20:48:32.238Z,100477.42
2023-03-29T20:51:06.242Z,100476.59
2023-03-29T20:53:40.553Z,100474.67
2023-03-29T20:56:19.939Z,100470.38
2023-03-29T20:58:57.654Z,100469.70
2023-03-29T21:01:34.766Z,100467.91
2023-03-29T21:04:09.794Z,100464.79
2023-03-29T21:06:47.100Z,100463.63
2023-03-29T21:09:23.281Z,100459.89
2023-03-29T21:12:01.311Z,100460.61
2023-03-29T21:14:36.657Z,100454.33
2023-03-29T21:17:11.236Z,100448.19
2023-03-29T21:19:44.422Z,100442.86
2023-03-29T21:22:17.654Z,100441.14
2023-03-29T21:24:55.384Z,100436.90
2023-03-29T21:27:28.954Z,100439.19
2023-03-29T21:30:03.840Z,100431.30
2023-03-29T21:32:37.131Z,100428.98
2023-03-29T21:35:15.770Z,100428.20
2023-03-29T21:37:54.881Z,100426.66
2023-03-29T21:40:31.202Z,100424.73
2023-03-29T21:43:06.228Z,100421.26
2023-03-29T21:45:41.837Z,100418.87
2023-03-29T21:48:16.261Z,100417.52
2023-03-29T21:50:55.146Z,100417.71
2023-03-29T21:53:31.240Z,100415.89
2023-03-29T21:56:06.618Z,100411.54
2023-03-29T21:58:44.428Z,100407.69
2023-03-29T22:01:19.894Z,100411.64
2023-03-29T22:03:53.512Z,100411.39
2023-03-29T22:06:26.319Z,100405.46
2023-03-29T22:08:55.645Z,100403.00
2023-03-29T22:11:25.828Z,100399.68
2023-03-29T22:13:58.674Z,100398.11
2023-03-29T22:16:32.475Z,100390.91
2023-03-29T22:19:06.441Z,100387.58
2023-03-29T22:21:40.250Z,100384.52
2023-03-29T22:24:12.980Z,100383.77
2023-03-29T22:26:49.511Z,100385.65
2023-03-29T22:29:21.335Z,100384.49
2023-03-29T22:31:50.188Z,100383.20
2023-03-29T22:34:19.332Z,100380.00
2023-03-29T22:36:47.736Z,100373.90
2023-03-29T22:39:17.085Z,100367.15
2023-03-29T22:41:45.920Z,100364.30
2023-03-29T22:44:14.683Z,100360.49
2023-03-29T22:46:45.920Z,100360.62
2023-03-29T22:49:19.740Z,100360.59
2023-03-29T22:51:48.032Z,100361.54
2023-03-29T22:54:18.356Z,100359.20
2023-03-29T22:56:47.364Z,100360.20
2023-03-29T22:59:18.206Z,100356.48
2023-03-29T23:01:48.799Z,100355.73
2023-03-29T23:04:24.295Z,100350.48
2023-03-29T23:06:53.601Z,100348.41
2023-03-29T23:09:25.086Z,100349.16
2023-03-29T23:12:02.516Z,100351.48
2023-03-29T23:14:34.685Z,100350.54
2023-03-29T23:17:07.405Z,100345.67
2023-03-29T23:19:39.397Z,100342.27
2023-03-29T23:22:11.438Z,100344.66
2023-03-29T23:24:43.664Z,100340.48
2023-03-29T23:27:14.784Z,100333.99
2023-03-29T23:29:46.496Z,100336.40
2023-03-29T23:32:17.980Z,100338.73
2023-03-29T23:34:51.383Z,100340.36
2023-03-29T23:37:25.264Z,100339.97
2023-03-29T23:40:00.785Z,100335.55
2023-03-29T23:42:33.800Z,100339.26
2023-03-29T23:45:04.420Z,100332.91
2023-03-29T23:47:34.538Z,100338.13
2023-03-29T23:50:04.407Z,100333.58
2023-03-29T23:52:39.690Z,100330.23
2023-03-29T23:55:16.616Z,100328.69
2023-03-29T23:57:59.163Z,100322.39
